createdAt,value
2017-09-14T00:00:19.167Z,92.00
2017-09-14T00:02:46.797Z,92.00
2017-09-14T00:05:14.391Z,91.90
2017-09-14T00:07:41.982Z,92.10
2017-09-14T00:10:09.565Z,92.10
2017-09-14T00:12:37.146Z,92.50
2017-09-14T00:15:04.796Z,92.40
2017-09-14T00:17:32.449Z,92.50
2017-09-14T00:20:01.022Z,92.40
2017-09-14T00:22:28.674Z,92.70
2017-09-14T00:24:56.413Z,92.50
2017-09-14T00:27:25.598Z,92.50
2017-09-14T00:29:53.188Z,92.40
2017-09-14T00:32:21.384Z,92.10
2017-09-14T00:34:49.849Z,92.70
2017-09-14T00:37:17.543Z,92.70
2017-09-14T00:39:45.154Z,92.50
2017-09-14T00:42:13.505Z,92.00
2017-09-14T00:44:41.529Z,92.00
2017-09-14T00:47:09.141Z,92.10
2017-09-14T00:49:36.762Z,92.10
2017-09-14T00:52:04.364Z,92.00
2017-09-14T00:54:31.940Z,92.10
2017-09-14T00:57:00.387Z,91.80
2017-09-14T00:59:28.105Z,91.80
2017-09-14T01:01:55.721Z,91.80
2017-09-14T01:04:23.362Z,92.00
2017-09-14T01:06:51.022Z,92.00
2017-09-14T01:09:18.607Z,92.00
2017-09-14T01:11:47.370Z,92.40
2017-09-14T01:14:15.000Z,92.30
2017-09-14T01:16:42.626Z,92.20
2017-09-14T01:19:11.042Z,92.50
2017-09-14T01:21:38.622Z,92.50
2017-09-14T01:24:06.242Z,92.60
2017-09-14T01:26:34.595Z,93.00
2017-09-14T01:29:02.210Z,93.30
2017-09-14T01:31:29.901Z,93.00
2017-09-14T01:33:57.512Z,93.00
2017-09-14T01:36:25.138Z,93.00
2017-09-14T01:38:53.547Z,93.20
2017-09-14T01:41:21.907Z,93.30
2017-09-14T01:43:49.510Z,93.20
2017-09-14T01:46:17.146Z,93.30
2017-09-14T01:48:45.539Z,93.10
2017-09-14T01:51:13.569Z,93.10
2017-09-14T01:53:41.247Z,93.00
2017-09-14T01:56:08.838Z,93.30
2017-09-14T01:58:36.467Z,93.50
2017-09-14T02:01:04.131Z,93.70
2017-09-14T02:03:32.135Z,93.60
2017-09-14T02:05:59.730Z,93.70
2017-09-14T02:08:27.396Z,93.60
2017-09-14T02:10:55.556Z,93.50
2017-09-14T02:13:23.129Z,93.40
2017-09-14T02:15:50.770Z,93.60
2017-09-14T02:18:18.372Z,93.60
2017-09-14T02:20:46.561Z,93.60
2017-09-14T02:23:14.932Z,93.80
2017-09-14T02:25:43.351Z,93.50
2017-09-14T02:28:10.995Z,93.40
2017-09-14T02:30:38.613Z,93.50
2017-09-14T02:33:06.179Z,93.30
2017-09-14T02:35:33.865Z,93.30
2017-09-14T02:38:02.240Z,93.00
2017-09-14T02:40:29.891Z,93.00
2017-09-14T02:42:58.280Z,93.30
2017-09-14T02:45:25.917Z,92.90
2017-09-14T02:47:53.605Z,93.10
2017-09-14T02:50:21.967Z,93.20
2017-09-14T02:52:49.610Z,93.20
2017-09-14T02:55:17.254Z,93.20
2017-09-14T02:57:44.909Z,93.20
2017-09-14T03:00:12.558Z,93.10
2017-09-14T03:02:40.148Z,93.00
2017-09-14T03:05:07.763Z,92.80
2017-09-14T03:07:35.569Z,92.80
2017-09-14T03:10:04.090Z,92.90
2017-09-14T03:12:32.493Z,92.70
2017-09-14T03:15:00.896Z,92.70
2017-09-14T03:17:28.529Z,92.70
2017-09-14T03:19:56.925Z,92.80
2017-09-14T03:22:25.300Z,92.80
2017-09-14T03:24:52.898Z,92.80
2017-09-14T03:27:20.512Z,92.70
2017-09-14T03:29:48.882Z,92.60
2017-09-14T03:32:17.343Z,92.60
2017-09-14T03:34:44.983Z,92.60
2017-09-14T03:37:12.640Z,92.90
2017-09-14T03:39:40.227Z,92.90
2017-09-14T03:42:08.606Z,92.90
2017-09-14T03:44:36.210Z,92.60
2017-09-14T03:47:03.858Z,92.80
2017-09-14T03:49:31.456Z,92.70
2017-09-14T03:51:59.028Z,92.80
2017-09-14T03:54:27.426Z,92.90
2017-09-14T03:56:55.116Z,92.90
2017-09-14T03:59:22.733Z,93.10
2017-09-14T04:01:50.321Z,93.00
2017-09-14T04:04:17.963Z,93.10
2017-09-14T04:06:46.629Z,92.80
2017-09-14T04:09:14.396Z,92.90
2017-09-14T04:11:42.777Z,93.00
2017-09-14T04:14:10.444Z,93.00
2017-09-14T04:16:38.031Z,93.00
2017-09-14T04:19:06.492Z,93.20
2017-09-14T04:21:34.073Z,93.30
2017-09-14T04:24:01.668Z,93.40
2017-09-14T04:26:29.265Z,93.70
2017-09-14T04:28:56.935Z,93.30
2017-09-14T04:31:26.338Z,93.30
2017-09-14T04:33:53.921Z,93.30
2017-09-14T04:36:21.456Z,93.20
2017-09-14T04:38:49.106Z,93.30
2017-09-14T04:41:16.739Z,93.50
2017-09-14T04:43:44.331Z,93.40
2017-09-14T04:46:12.091Z,93.50
2017-09-14T04:48:39.648Z,93.50
2017-09-14T04:51:07.256Z,93.60
2017-09-14T04:53:36.817Z,93.60
2017-09-14T04:56:04.484Z,93.60
2017-09-14T04:58:32.057Z,93.60
2017-09-14T05:00:59.687Z,93.60
2017-09-14T05:03:27.340Z,93.50
2017-09-14T05:05:54.960Z,93.40
2017-09-14T05:08:22.633Z,93.40
2017-09-14T05:10:50.970Z,93.20
2017-09-14T05:13:18.589Z,93.20
2017-09-14T05:15:46.193Z,93.30
2017-09-14T05:18:13.795Z,93.20
2017-09-14T05:20:42.231Z,93.20
2017-09-14T05:23:09.801Z,93.20
2017-09-14T05:25:37.446Z,93.00
2017-09-14T05:28:05.094Z,92.80
2017-09-14T05:30:32.764Z,92.80
2017-09-14T05:33:00.376Z,92.50
2017-09-14T05:35:28.766Z,92.20
2017-09-14T05:37:56.339Z,92.20
2017-09-14T05:40:23.981Z,92.30
2017-09-14T05:42:51.564Z,92.20
2017-09-14T05:45:19.160Z,91.90
2017-09-14T05:47:46.791Z,91.40
2017-09-14T05:50:14.411Z,91.10
2017-09-14T05:52:42.366Z,91.10
2017-09-14T05:55:10.064Z,91.00
2017-09-14T05:57:37.789Z,90.70
2017-09-14T06:00:05.405Z,90.10
2017-09-14T06:02:33.013Z,90.10
2017-09-14T06:05:01.575Z,90.10
2017-09-14T06:07:29.279Z,90.40
2017-09-14T06:09:57.871Z,90.50
2017-09-14T06:12:26.655Z,91.10
2017-09-14T06:14:55.054Z,91.00
2017-09-14T06:17:22.700Z,91.00
2017-09-14T06:19:51.111Z,91.00
2017-09-14T06:22:18.717Z,90.90
2017-09-14T06:24:46.315Z,90.90
2017-09-14T06:27:13.949Z,91.00
2017-09-14T06:29:41.573Z,91.00
2017-09-14T06:32:09.160Z,90.90
2017-09-14T06:34:37.597Z,90.90
2017-09-14T06:37:05.210Z,90.90
2017-09-14T06:39:33.584Z,90.70
2017-09-14T06:42:01.278Z,90.70
2017-09-14T06:44:30.790Z,90.50
2017-09-14T06:46:58.405Z,90.50
2017-09-14T06:49:26.029Z,90.60
2017-09-14T06:51:53.597Z,90.40
2017-09-14T06:54:21.737Z,90.20
2017-09-14T06:56:49.461Z,90.30
2017-09-14T06:59:17.131Z,90.20
2017-09-14T07:01:44.740Z,89.80
2017-09-14T07:04:12.368Z,90.00
2017-09-14T07:06:40.747Z,90.00
2017-09-14T07:09:09.994Z,90.00
2017-09-14T07:11:37.657Z,90.00
2017-09-14T07:14:05.269Z,89.80
2017-09-14T07:16:33.676Z,89.20
2017-09-14T07:19:01.288Z,89.20
2017-09-14T07:21:29.659Z,89.20
2017-09-14T07:23:57.247Z,89.20
2017-09-14T07:26:25.626Z,88.70
2017-09-14T07:28:54.032Z,89.20
2017-09-14T07:31:21.655Z,89.20
2017-09-14T07:33:49.294Z,90.00
2017-09-14T07:36:17.799Z,90.20
2017-09-14T07:38:46.176Z,90.70
2017-09-14T07:41:13.823Z,90.70
2017-09-14T07:43:41.490Z,90.90
2017-09-14T07:46:09.103Z,90.90
2017-09-14T07:48:36.676Z,91.20
2017-09-14T07:51:04.270Z,91.40
2017-09-14T07:53:31.932Z,90.30
2017-09-14T07:55:59.541Z,86.70
2017-09-14T07:58:27.200Z,86.80
2017-09-14T08:00:54.887Z,87.30
2017-09-14T08:03:22.529Z,86.60
2017-09-14T08:05:50.241Z,87.00
2017-09-14T08:08:18.058Z,86.80
2017-09-14T08:10:45.693Z,87.60
2017-09-14T08:13:14.024Z,87.90
2017-09-14T08:15:42.535Z,87.90
2017-09-14T08:18:10.220Z,88.90
2017-09-14T08:20:38.579Z,87.90
2017-09-14T08:23:06.164Z,87.80
2017-09-14T08:25:33.805Z,88.20
2017-09-14T08:28:02.177Z,87.80
2017-09-14T08:30:30.624Z,87.60
2017-09-14T08:32:58.252Z,87.60
2017-09-14T08:35:25.874Z,88.40
2017-09-14T08:37:54.225Z,88.20
2017-09-14T08:40:21.807Z,88.20
2017-09-14T08:42:49.401Z,86.80
2017-09-14T08:45:17.752Z,86.70
2017-09-14T08:47:45.448Z,86.70
2017-09-14T08:50:13.057Z,88.20
2017-09-14T08:52:40.709Z,88.00
2017-09-14T08:55:08.329Z,88.30
2017-09-14T08:57:35.912Z,89.30
2017-09-14T09:00:03.536Z,89.10
2017-09-14T09:02:31.138Z,90.00
2017-09-14T09:04:58.763Z,90.90
2017-09-14T09:07:26.387Z,90.60
2017-09-14T09:09:54.006Z,90.60
2017-09-14T09:12:21.638Z,90.20
2017-09-14T09:14:50.117Z,90.70
2017-09-14T09:17:18.497Z,90.40
2017-09-14T09:19:46.129Z,90.40
2017-09-14T09:22:13.781Z,89.30
2017-09-14T09:24:41.384Z,89.10
2017-09-14T09:27:09.799Z,90.80
2017-09-14T09:29:37.720Z,90.80
2017-09-14T09:32:05.313Z,90.90
2017-09-14T09:34:32.913Z,91.00
2017-09-14T09:37:01.063Z,90.50
2017-09-14T09:39:28.705Z,90.20
2017-09-14T09:41:56.333Z,90.30
2017-09-14T09:44:23.958Z,90.20
2017-09-14T09:46:51.526Z,89.50
2017-09-14T09:49:19.083Z,88.30
2017-09-14T09:51:46.713Z,88.00
2017-09-14T09:54:14.277Z,88.70
2017-09-14T09:56:41.849Z,87.70
2017-09-14T09:59:09.428Z,88.50
2017-09-14T10:01:37.058Z,87.10
2017-09-14T10:04:04.694Z,86.30
2017-09-14T10:06:33.444Z,86.70
2017-09-14T10:09:01.044Z,86.70
2017-09-14T10:11:29.442Z,86.20
2017-09-14T10:13:57.063Z,86.20
2017-09-14T10:16:24.661Z,89.00
2017-09-14T10:18:52.262Z,87.10
2017-09-14T10:21:19.871Z,86.50
2017-09-14T10:23:47.513Z,86.90
2017-09-14T10:26:15.895Z,84.80
2017-09-14T10:28:43.558Z,85.20
2017-09-14T10:31:11.965Z,84.40
2017-09-14T10:36:30.444Z,84.20
2017-09-14T10:38:58.425Z,83.30
2017-09-14T10:41:26.083Z,83.90
2017-09-14T10:43:53.733Z,83.90
2017-09-14T10:46:21.392Z,82.80
2017-09-14T10:48:49.025Z,81.70
2017-09-14T10:51:18.329Z,79.10
2017-09-14T10:53:45.929Z,79.20
2017-09-14T10:56:13.583Z,79.50
2017-09-14T10:58:41.184Z,78.90
2017-09-14T11:01:09.432Z,78.80
2017-09-14T11:03:37.069Z,77.30
2017-09-14T11:06:04.708Z,79.00
2017-09-14T11:08:32.311Z,81.30
2017-09-14T11:11:00.542Z,79.00
2017-09-14T11:13:29.010Z,77.80
2017-09-14T11:15:56.643Z,77.80
2017-09-14T11:18:24.226Z,76.50
2017-09-14T11:20:51.871Z,76.00
2017-09-14T11:23:20.357Z,75.00
2017-09-14T11:25:47.965Z,75.00
2017-09-14T11:28:15.666Z,74.60
2017-09-14T11:30:43.366Z,75.20
2017-09-14T11:33:11.808Z,75.20
2017-09-14T11:35:39.410Z,75.30
2017-09-14T11:38:07.009Z,74.60
2017-09-14T11:40:34.643Z,74.90
2017-09-14T11:43:02.284Z,74.20
2017-09-14T11:45:29.912Z,74.30
2017-09-14T11:47:57.528Z,74.60
2017-09-14T11:50:25.154Z,72.20
2017-09-14T11:52:52.761Z,71.30
2017-09-14T11:55:20.373Z,71.60
2017-09-14T11:57:48.011Z,71.30
2017-09-14T12:00:15.689Z,72.20
2017-09-14T12:02:43.268Z,71.40
2017-09-14T12:05:11.832Z,71.10
2017-09-14T12:07:39.439Z,72.80
2017-09-14T12:10:07.045Z,77.90
2017-09-14T12:12:35.403Z,79.00
2017-09-14T12:15:03.014Z,78.20
2017-09-14T12:17:30.656Z,79.50
2017-09-14T12:19:58.336Z,80.60
2017-09-14T12:22:26.775Z,72.70
2017-09-14T12:24:54.548Z,72.50
2017-09-14T12:27:22.347Z,75.00
2017-09-14T12:29:50.099Z,72.30
2017-09-14T12:32:17.760Z,70.90
2017-09-14T12:34:45.444Z,72.30
2017-09-14T12:37:13.848Z,73.60
2017-09-14T12:39:41.489Z,73.20
2017-09-14T12:42:09.845Z,69.80
2017-09-14T12:44:37.537Z,69.70
2017-09-14T12:47:05.316Z,67.50
2017-09-14T12:49:33.024Z,68.20
2017-09-14T12:52:00.591Z,67.20
2017-09-14T12:54:28.225Z,66.50
2017-09-14T12:56:55.880Z,66.20
2017-09-14T12:59:25.109Z,65.30
2017-09-14T13:01:52.788Z,65.30
2017-09-14T13:04:21.176Z,66.70
2017-09-14T13:06:49.561Z,66.50
2017-09-14T13:09:17.966Z,66.40
2017-09-14T13:11:45.583Z,66.30
2017-09-14T13:14:14.347Z,66.30
2017-09-14T13:16:41.955Z,66.30
2017-09-14T13:19:09.756Z,66.10
2017-09-14T13:21:37.349Z,65.90
2017-09-14T13:24:04.999Z,65.10
2017-09-14T13:26:32.573Z,63.20
2017-09-14T13:29:00.194Z,63.50
2017-09-14T13:31:27.831Z,62.90
2017-09-14T13:33:55.434Z,64.40
2017-09-14T13:36:23.129Z,64.30
2017-09-14T13:38:50.830Z,64.10
2017-09-14T13:41:18.465Z,63.50
2017-09-14T13:43:47.664Z,66.00
2017-09-14T13:46:15.283Z,65.90
2017-09-14T13:48:42.913Z,69.80
2017-09-14T13:51:10.532Z,73.60
2017-09-14T13:53:38.106Z,78.60
2017-09-14T13:56:05.726Z,80.90
2017-09-14T13:58:33.400Z,82.90
2017-09-14T14:01:01.059Z,85.90
2017-09-14T14:03:28.746Z,88.10
2017-09-14T14:05:57.532Z,89.10
2017-09-14T14:08:25.192Z,87.70
2017-09-14T14:10:52.826Z,89.10
2017-09-14T14:13:20.464Z,88.80
2017-09-14T14:15:48.120Z,89.40
2017-09-14T14:18:16.452Z,88.90
2017-09-14T14:20:45.022Z,88.60
2017-09-14T14:23:12.616Z,87.50
2017-09-14T14:25:41.020Z,89.00
2017-09-14T14:28:09.563Z,88.80
2017-09-14T14:30:38.092Z,87.60
2017-09-14T14:33:05.732Z,87.00
2017-09-14T14:35:33.375Z,87.60
2017-09-14T14:38:02.334Z,86.20
2017-09-14T14:40:29.948Z,86.20
2017-09-14T14:42:57.768Z,88.30
2017-09-14T14:45:25.434Z,87.80
2017-09-14T14:47:52.993Z,89.10
2017-09-14T14:50:20.654Z,88.50
2017-09-14T14:52:48.268Z,86.60
2017-09-14T14:55:15.928Z,86.60
2017-09-14T14:57:43.615Z,87.30
2017-09-14T15:00:11.328Z,87.90
2017-09-14T15:02:39.829Z,88.30
2017-09-14T15:05:07.451Z,88.30
2017-09-14T15:07:35.888Z,89.30
2017-09-14T15:10:03.684Z,88.60
2017-09-14T15:12:31.264Z,89.70
2017-09-14T15:14:59.763Z,90.80
2017-09-14T15:17:28.301Z,90.40
2017-09-14T15:19:55.907Z,90.40
2017-09-14T15:22:24.258Z,90.50
2017-09-14T15:24:51.908Z,90.90
2017-09-14T15:27:19.575Z,90.90
2017-09-14T15:29:47.186Z,90.90
2017-09-14T15:32:14.839Z,91.40
2017-09-14T15:34:42.476Z,90.80
2017-09-14T15:37:15.681Z,90.80
2017-09-14T15:39:49.808Z,91.60
2017-09-14T15:42:22.979Z,91.60
2017-09-14T15:44:57.024Z,91.30
2017-09-14T15:47:25.484Z,90.90
2017-09-14T15:49:58.732Z,91.00
2017-09-14T15:52:26.367Z,91.20
2017-09-14T15:54:54.057Z,91.40
2017-09-14T15:57:21.693Z,92.00
2017-09-14T15:59:49.275Z,92.10
2017-09-14T16:02:17.236Z,92.30
2017-09-14T16:04:44.913Z,92.90
2017-09-14T16:07:12.508Z,93.10
2017-09-14T16:09:40.874Z,93.80
2017-09-14T16:12:08.486Z,93.80
2017-09-14T16:14:36.299Z,94.20
2017-09-14T16:17:03.951Z,94.00
2017-09-14T16:19:31.593Z,93.70
2017-09-14T16:21:59.281Z,94.00
2017-09-14T16:24:27.617Z,93.80
2017-09-14T16:26:55.215Z,93.80
2017-09-14T16:29:23.137Z,94.00
2017-09-14T16:31:50.753Z,93.80
2017-09-14T16:34:18.382Z,93.50
2017-09-14T16:36:45.976Z,93.50
2017-09-14T16:39:13.581Z,93.80
2017-09-14T16:41:41.378Z,93.60
2017-09-14T16:44:09.362Z,93.70
2017-09-14T16:46:37.019Z,93.50
2017-09-14T16:49:04.598Z,93.60
2017-09-14T16:51:32.208Z,94.00
2017-09-14T16:53:59.795Z,93.90
2017-09-14T16:56:27.370Z,93.80
2017-09-14T16:58:55.736Z,94.00
2017-09-14T17:01:23.412Z,93.90
2017-09-14T17:03:51.824Z,94.00
2017-09-14T17:06:19.423Z,94.00
2017-09-14T17:08:47.164Z,94.10
2017-09-14T17:11:14.830Z,94.10
2017-09-14T17:13:42.473Z,94.20
2017-09-14T17:16:10.133Z,94.20
2017-09-14T17:18:37.772Z,94.00
2017-09-14T17:21:06.185Z,93.90
2017-09-14T17:23:33.790Z,93.90
2017-09-14T17:26:02.196Z,94.40
2017-09-14T17:28:30.568Z,94.30
2017-09-14T17:30:58.172Z,94.30
2017-09-14T17:33:25.751Z,94.30
2017-09-14T17:35:54.126Z,94.40
2017-09-14T17:38:21.701Z,94.40
2017-09-14T17:40:49.338Z,94.50
2017-09-14T17:43:16.944Z,94.50
2017-09-14T17:45:45.323Z,95.10
2017-09-14T17:48:13.706Z,94.80
2017-09-14T17:50:41.327Z,94.80
2017-09-14T17:53:08.952Z,94.90
2017-09-14T17:55:36.512Z,94.70
2017-09-14T17:58:04.144Z,94.90
2017-09-14T18:00:31.790Z,95.10
2017-09-14T18:02:59.432Z,95.10
2017-09-14T18:05:27.806Z,94.90
2017-09-14T18:07:55.573Z,94.90
2017-09-14T18:10:23.327Z,95.00
2017-09-14T18:12:51.171Z,95.00
2017-09-14T18:15:19.880Z,95.00
2017-09-14T18:17:47.491Z,94.90
2017-09-14T18:20:15.869Z,95.00
2017-09-14T18:22:43.501Z,95.00
2017-09-14T18:25:11.074Z,95.10
2017-09-14T18:27:38.746Z,95.10
2017-09-14T18:30:06.329Z,95.20
2017-09-14T18:32:33.949Z,95.10
2017-09-14T18:35:02.365Z,94.80
2017-09-14T18:37:30.705Z,95.00
2017-09-14T18:39:58.332Z,95.00
2017-09-14T18:42:25.921Z,94.80
2017-09-14T18:44:53.523Z,94.70
2017-09-14T18:47:21.094Z,94.80
2017-09-14T18:49:48.766Z,94.80
2017-09-14T18:52:16.357Z,94.60
2017-09-14T18:54:43.977Z,94.60
2017-09-14T18:57:11.642Z,94.80
2017-09-14T18:59:39.250Z,94.60
2017-09-14T19:02:06.921Z,94.70
2017-09-14T19:04:34.550Z,94.40
2017-09-14T19:07:02.166Z,94.50
2017-09-14T19:09:29.768Z,94.50
2017-09-14T19:11:57.401Z,94.40
2017-09-14T19:14:25.295Z,94.40
2017-09-14T19:16:52.868Z,94.20
2017-09-14T19:19:20.445Z,94.20
2017-09-14T19:21:48.057Z,94.20
2017-09-14T19:24:15.694Z,94.20
2017-09-14T19:26:44.115Z,94.40
2017-09-14T19:29:11.749Z,94.40
2017-09-14T19:31:39.339Z,94.40
2017-09-14T19:34:06.945Z,94.50
2017-09-14T19:36:35.337Z,94.50
2017-09-14T19:39:02.965Z,94.50
2017-09-14T19:41:30.644Z,94.50
2017-09-14T19:43:58.221Z,94.40
2017-09-14T19:46:26.578Z,94.40
2017-09-14T19:48:54.217Z,94.40
2017-09-14T19:51:21.799Z,94.20
2017-09-14T19:53:49.396Z,94.30
2017-09-14T19:56:17.074Z,94.10
2017-09-14T19:58:44.716Z,93.90
2017-09-14T20:01:13.070Z,93.90
2017-09-14T20:03:40.785Z,93.90
2017-09-14T20:06:08.393Z,94.00
2017-09-14T20:08:36.747Z,94.00
2017-09-14T20:11:04.409Z,93.90
2017-09-14T20:13:32.029Z,93.70
2017-09-14T20:15:59.668Z,93.80
2017-09-14T20:18:28.021Z,93.50
2017-09-14T20:20:55.711Z,93.50
2017-09-14T20:23:24.050Z,93.60
2017-09-14T20:25:51.652Z,93.50
2017-09-14T20:28:19.995Z,93.40
2017-09-14T20:30:47.623Z,93.80
2017-09-14T20:33:15.255Z,93.30
2017-09-14T20:35:42.957Z,93.30
2017-09-14T20:38:10.586Z,93.30
2017-09-14T20:40:38.266Z,93.30
2017-09-14T20:43:05.902Z,93.30
2017-09-14T20:45:34.242Z,93.40
2017-09-14T20:48:01.837Z,93.40
2017-09-14T20:50:30.202Z,93.50
2017-09-14T20:52:57.808Z,93.90
2017-09-14T20:55:25.419Z,93.40
2017-09-14T20:57:53.162Z,93.30
2017-09-14T21:00:20.825Z,93.30
2017-09-14T21:02:48.616Z,93.50
2017-09-14T21:05:17.739Z,93.30
2017-09-14T21:07:45.380Z,93.20
2017-09-14T21:10:13.099Z,93.00
2017-09-14T21:12:40.825Z,93.10
2017-09-14T21:15:08.443Z,93.00
2017-09-14T21:17:36.056Z,92.80
2017-09-14T21:20:03.655Z,92.80
2017-09-14T21:22:31.251Z,92.90
2017-09-14T21:24:58.895Z,93.00
2017-09-14T21:27:27.526Z,92.90
2017-09-14T21:29:55.136Z,92.90
2017-09-14T21:32:22.771Z,92.90
2017-09-14T21:34:50.382Z,92.90
2017-09-14T21:37:19.244Z,92.90
2017-09-14T21:39:46.884Z,92.90
2017-09-14T21:42:14.489Z,92.70
2017-09-14T21:44:42.875Z,92.70
2017-09-14T21:47:11.250Z,92.60
2017-09-14T21:49:39.623Z,92.60
2017-09-14T21:52:07.268Z,92.60
2017-09-14T21:54:35.571Z,92.60
2017-09-14T21:57:03.201Z,92.40
2017-09-14T21:59:30.799Z,92.60
2017-09-14T22:01:58.450Z,92.60
2017-09-14T22:04:26.077Z,92.70
2017-09-14T22:06:53.768Z,92.70
2017-09-14T22:09:21.408Z,92.70
2017-09-14T22:11:49.012Z,92.80
2017-09-14T22:14:16.673Z,93.00
2017-09-14T22:16:44.293Z,93.20
2017-09-14T22:19:11.902Z,93.30
2017-09-14T22:21:39.540Z,93.50
2017-09-14T22:24:07.222Z,93.60
2017-09-14T22:26:35.186Z,93.50
2017-09-14T22:29:02.790Z,93.50
2017-09-14T22:31:30.464Z,93.60
2017-09-14T22:33:58.045Z,93.50
2017-09-14T22:36:26.402Z,93.50
2017-09-14T22:38:53.996Z,93.50
2017-09-14T22:41:22.387Z,93.50
2017-09-14T22:43:49.981Z,93.50
2017-09-14T22:46:17.650Z,93.40
2017-09-14T22:48:46.169Z,93.20
2017-09-14T22:51:13.781Z,93.40
2017-09-14T22:53:41.367Z,93.30
2017-09-14T22:56:08.973Z,93.20
2017-09-14T22:58:36.612Z,93.00
2017-09-14T23:01:04.204Z,93.00
2017-09-14T23:03:31.794Z,93.00
2017-09-14T23:05:59.451Z,93.10
2017-09-14T23:08:27.026Z,93.00
2017-09-14T23:10:54.725Z,93.30
2017-09-14T23:13:23.100Z,93.30
2017-09-14T23:15:51.451Z,93.40
2017-09-14T23:18:19.094Z,93.40
2017-09-14T23:20:46.736Z,93.40
2017-09-14T23:23:14.310Z,93.10
2017-09-14T23:25:41.893Z,93.20
2017-09-14T23:28:09.509Z,93.30
2017-09-14T23:30:37.174Z,93.20
2017-09-14T23:33:04.785Z,93.10
2017-09-14T23:35:32.434Z,93.20
2017-09-14T23:38:00.095Z,93.30
2017-09-14T23:40:27.700Z,93.30
2017-09-14T23:42:56.050Z,93.50
2017-09-14T23:45:24.067Z,93.50
2017-09-14T23:47:51.653Z,93.70
2017-09-14T23:50:19.273Z,93.80
2017-09-14T23:52:46.925Z,93.90
2017-09-14T23:55:15.325Z,94.00
2017-09-14T23:57:42.932Z,94.00
